Time;durP1;ratioP1;P1;durP2;ratioP2;P2;SDS_P1;SDS_P2;PMS_P1;PMS_P2;Temp;Humidity;BMP_temperature;BMP_pressure;BME280_temperature;BME280_humidity;BME280_pressure;Samples;Min_cycle;Max_cycle;Signal;HPM_P1;HPM_P2
2023/01/12 00:02:12;;;;;;;5.43;1.70;;;6.50;99.90;;;;;;5014898;28;20107;-74
2023/01/12 00:04:38;;;;;;;6.43;2.10;;;6.50;99.90;;;;;;4996826;28;20026;-74
2023/01/12 00:07:12;;;;;;;2.10;0.95;;;6.40;99.90;;;;;;4989275;28;20018;-74
2023/01/12 00:09:41;;;;;;;6.03;1.70;;;6.40;99.90;;;;;;5018087;28;20049;-74
2023/01/12 00:12:09;;;;;;;4.65;0.88;;;6.40;99.90;;;;;;5012885;28;20490;-73
2023/01/12 00:14:36;;;;;;;3.72;0.68;;;6.40;99.90;;;;;;5012969;28;20087;-74
2023/01/12 00:17:03;;;;;;;7.65;1.13;;;6.40;99.90;;;;;;4995600;28;20022;-74
2023/01/12 00:19:30;;;;;;;3.53;1.35;;;6.50;99.90;;;;;;5013796;28;20037;-72
2023/01/12 00:22:13;;;;;;;6.22;1.10;;;6.50;99.90;;;;;;5013405;28;20038;-74
2023/01/12 00:24:45;;;;;;;6.75;1.40;;;6.50;99.90;;;;;;4995662;28;20025;-73
2023/01/12 00:27:14;;;;;;;3.13;0.73;;;6.50;99.90;;;;;;4985151;28;20034;-75
2023/01/12 00:29:40;;;;;;;6.00;1.08;;;6.50;99.90;;;;;;5008771;23;20096;-76
2023/01/12 00:32:14;;;;;;;5.55;1.17;;;6.50;99.90;;;;;;5010706;28;20026;-77
2023/01/12 00:34:40;;;;;;;6.10;1.45;;;6.50;99.90;;;;;;5011386;28;20037;-77
2023/01/12 00:37:06;;;;;;;6.85;0.98;;;6.50;99.90;;;;;;5011890;28;20501;-77
2023/01/12 00:39:33;;;;;;;2.78;1.13;;;6.50;99.90;;;;;;5010698;28;20179;-75
2023/01/12 00:47:41;;;;;;;3.70;0.90;;;6.50;99.90;;;;;;5010559;28;20021;-75
2023/01/12 00:50:07;;;;;;;5.82;0.98;;;6.60;99.90;;;;;;5010430;28;20037;-76
2023/01/12 00:52:33;;;;;;;3.90;1.27;;;6.50;99.90;;;;;;5009130;28;20030;-76
2023/01/12 00:55:02;;;;;;;3.65;0.85;;;6.50;99.90;;;;;;5007573;28;20030;-76
2023/01/12 00:57:37;;;;;;;7.57;1.13;;;6.50;99.90;;;;;;5012476;28;20065;-76
2023/01/12 01:00:06;;;;;;;6.57;1.40;;;6.50;99.90;;;;;;5010905;28;20452;-75
2023/01/12 01:02:35;;;;;;;8.60;1.20;;;6.60;99.90;;;;;;5010541;28;20057;-75
2023/01/12 01:05:01;;;;;;;5.30;1.70;;;6.60;99.90;;;;;;5011413;28;20069;-76
2023/01/12 01:07:26;;;;;;;7.18;1.05;;;6.60;99.90;;;;;;5011467;28;20468;-76
2023/01/12 01:09:52;;;;;;;3.38;0.77;;;6.70;99.90;;;;;;5015593;28;20105;-75
2023/01/12 01:12:24;;;;;;;6.00;1.00;;;6.70;99.90;;;;;;5010351;28;20026;-75
2023/01/12 01:14:49;;;;;;;6.50;0.80;;;6.70;99.90;;;;;;5009270;28;20030;-75
2023/01/12 01:17:24;;;;;;;5.82;1.27;;;6.70;99.90;;;;;;5024680;28;20026;-76
2023/01/12 01:19:49;;;;;;;6.70;0.93;;;6.70;99.90;;;;;;5012373;28;20053;-75
2023/01/12 01:22:15;;;;;;;11.55;1.15;;;6.80;99.90;;;;;;5010609;28;20061;-75
2023/01/12 01:24:41;;;;;;;6.97;1.17;;;6.90;99.90;;;;;;5011698;28;20558;-75
2023/01/12 01:27:16;;;;;;;3.42;0.85;;;6.90;99.90;;;;;;5009188;28;20018;-76
2023/01/12 01:29:44;;;;;;;4.78;1.42;;;6.90;99.90;;;;;;5008355;28;20506;-75
2023/01/12 01:32:10;;;;;;;10.80;1.23;;;7.00;99.90;;;;;;5009014;28;20443;-74
2023/01/12 01:34:39;;;;;;;4.97;0.85;;;7.00;99.90;;;;;;5009824;28;20057;-75
2023/01/12 01:37:08;;;;;;;9.35;1.23;;;7.00;99.90;;;;;;5008136;28;20034;-75
2023/01/12 01:39:34;;;;;;;5.05;0.80;;;7.10;99.90;;;;;;5005810;28;20089;-75
2023/01/12 01:42:00;;;;;;;4.78;1.05;;;7.10;99.90;;;;;;5009354;28;20121;-75
2023/01/12 01:44:31;;;;;;;5.13;1.02;;;7.20;99.90;;;;;;5011309;28;20096;-74
2023/01/12 01:47:06;;;;;;;4.10;1.15;;;7.20;99.90;;;;;;5011358;28;20036;-73
2023/01/12 01:49:51;;;;;;;4.10;1.05;;;7.20;99.90;;;;;;5007793;28;20108;-72
2023/01/12 01:52:40;;;;;;;3.55;1.10;;;7.20;99.90;;;;;;5008956;28;20400;-74
2023/01/12 01:55:10;;;;;;;6.32;0.90;;;7.20;99.90;;;;;;5011725;28;20491;-74
2023/01/12 01:57:44;;;;;;;8.57;1.45;;;7.30;99.90;;;;;;5008308;28;20017;-74
2023/01/12 02:00:11;;;;;;;3.03;0.90;;;7.30;99.90;;;;;;5008461;28;20007;-75
2023/01/12 02:02:38;;;;;;;13.05;1.35;;;7.30;99.90;;;;;;5007680;28;20048;-74
2023/01/12 02:05:04;;;;;;;5.05;0.88;;;7.30;99.90;;;;;;5007187;28;20461;-74
2023/01/12 02:07:31;;;;;;;6.18;0.95;;;7.30;99.90;;;;;;5005050;28;20479;-74
2023/01/12 02:10:01;;;;;;;3.83;0.70;;;7.40;99.90;;;;;;5005895;28;20030;-75
2023/01/12 02:18:42;;;;;;;9.18;1.23;;;7.50;99.90;;;;;;5005325;28;19928;-75
2023/01/12 02:21:30;;;;;;;4.32;1.10;;;7.50;99.90;;;;;;5005907;28;20030;-75
2023/01/12 02:23:59;;;;;;;6.10;1.05;;;7.50;99.90;;;;;;5007526;28;20103;-75
2023/01/12 02:26:35;;;;;;;4.75;1.02;;;7.50;99.90;;;;;;5007188;28;20026;-74
2023/01/12 02:29:38;;;;;;;5.75;1.25;;;7.60;99.90;;;;;;5008647;28;20069;-75
2023/01/12 02:32:11;;;;;;;6.00;1.00;;;7.60;99.90;;;;;;5011381;28;20022;-75
2023/01/12 02:34:55;;;;;;;6.30;0.90;;;7.60;99.90;;;;;;5024699;28;20106;-75
2023/01/12 02:37:42;;;;;;;4.82;1.45;;;7.60;99.90;;;;;;5008083;28;20033;-75
2023/01/12 02:40:38;;;;;;;4.20;1.52;;;7.60;99.90;;;;;;5005178;28;20029;-75
2023/01/12 02:43:27;;;;;;;4.22;0.95;;;7.60;99.90;;;;;;5008675;28;20654;-75
2023/01/12 02:46:14;;;;;;;4.45;0.98;;;7.60;99.90;;;;;;5011496;28;20084;-76
2023/01/12 02:49:09;;;;;;;10.65;1.35;;;7.60;99.90;;;;;;5005254;28;20029;-75
2023/01/12 02:51:56;;;;;;;8.73;1.30;;;7.60;99.90;;;;;;5000499;28;20117;-76
2023/01/12 02:54:24;;;;;;;6.47;1.15;;;7.60;99.90;;;;;;5006999;28;20030;-77
2023/01/12 02:56:53;;;;;;;6.22;0.80;;;7.60;99.90;;;;;;5007780;28;20030;-75
2023/01/12 02:59:52;;;;;;;6.40;1.30;;;7.60;99.90;;;;;;5011266;28;20042;-75
2023/01/12 03:02:21;;;;;;;5.45;0.93;;;7.60;99.90;;;;;;4980034;28;20046;-75
2023/01/12 03:04:47;;;;;;;6.95;1.38;;;7.60;99.90;;;;;;5010198;28;20026;-76
2023/01/12 03:07:13;;;;;;;5.97;0.82;;;7.60;99.90;;;;;;5007734;28;20348;-76
2023/01/12 03:09:45;;;;;;;6.53;1.33;;;7.50;99.90;;;;;;5005331;28;20034;-76
2023/01/12 03:12:22;;;;;;;7.47;1.00;;;7.50;99.90;;;;;;5006787;28;20026;-76
2023/01/12 03:14:52;;;;;;;5.95;1.08;;;7.40;99.90;;;;;;5007303;28;20053;-74
2023/01/12 03:17:25;;;;;;;3.58;0.90;;;7.40;99.90;;;;;;5008915;28;20065;-75
2023/01/12 03:19:53;;;;;;;7.15;1.45;;;7.40;99.90;;;;;;5005573;28;20049;-76
2023/01/12 03:22:20;;;;;;;3.42;1.00;;;7.40;99.90;;;;;;5011199;28;20045;-75
2023/01/12 03:24:49;;;;;;;8.18;1.85;;;7.40;99.90;;;;;;5008261;28;20028;-75
2023/01/12 03:27:22;;;;;;;6.13;0.90;;;7.40;99.90;;;;;;5007219;28;20026;-75
2023/01/12 03:29:53;;;;;;;;;;;7.40;99.90;;;;;;5007435;28;20033;-75
2023/01/12 03:32:20;;;;;;;12.13;1.30;;;7.40;99.90;;;;;;5010243;28;19963;-75
2023/01/12 03:34:49;;;;;;;5.50;1.23;;;7.40;99.90;;;;;;5009955;28;20471;-75
2023/01/12 03:37:30;;;;;;;5.72;1.30;;;7.30;99.90;;;;;;5007276;28;20080;-75
2023/01/12 03:40:07;;;;;;;5.60;1.33;;;7.30;99.90;;;;;;5003468;28;20030;-75
2023/01/12 03:42:50;;;;;;;6.18;1.15;;;7.30;99.90;;;;;;5007364;28;20513;-75
2023/01/12 03:45:18;;;;;;;11.13;1.17;;;7.30;99.90;;;;;;5005812;28;20109;-75
2023/01/12 03:48:14;;;;;;;11.13;1.25;;;7.20;99.90;;;;;;5007093;28;20037;-75
2023/01/12 03:51:10;;;;;;;8.02;1.20;;;7.30;99.90;;;;;;5003338;28;20033;-75
2023/01/12 03:53:38;;;;;;;12.32;1.52;;;7.20;99.90;;;;;;5008015;28;20012;-75
2023/01/12 03:56:08;;;;;;;4.22;0.98;;;7.20;99.90;;;;;;5010049;28;20026;-75
2023/01/12 03:58:34;;;;;;;4.05;1.23;;;7.20;99.90;;;;;;5007437;28;20030;-75
2023/01/12 04:01:01;;;;;;;8.23;1.30;;;7.20;99.90;;;;;;5007657;28;20034;-74
2023/01/12 04:03:26;;;;;;;14.43;2.10;;;7.20;99.90;;;;;;5008888;28;20026;-75
2023/01/12 04:05:52;;;;;;;6.57;1.08;;;7.10;99.90;;;;;;5014427;28;20513;-76
2023/01/12 04:08:18;;;;;;;6.65;1.30;;;7.10;99.90;;;;;;5008465;28;20034;-75
2023/01/12 04:10:44;;;;;;;9.77;1.77;;;7.10;99.90;;;;;;5030385;28;20036;-76
2023/01/12 04:13:12;;;;;;;10.20;1.20;;;7.10;99.90;;;;;;5011377;28;20044;-76
2023/01/12 04:15:41;;;;;;;7.55;1.20;;;7.10;99.90;;;;;;5012038;28;20051;-76
2023/01/12 04:18:16;;;;;;;8.45;1.00;;;7.10;99.90;;;;;;5012501;28;20030;-76
2023/01/12 04:20:42;;;;;;;6.28;1.35;;;7.20;99.90;;;;;;5026357;28;20034;-76
2023/01/12 04:23:08;;;;;;;4.72;1.08;;;7.20;99.90;;;;;;5012423;28;20036;-76
2023/01/12 04:25:34;;;;;;;7.43;1.20;;;7.20;99.90;;;;;;5013887;28;20054;-77
2023/01/12 04:28:03;;;;;;;10.90;1.35;;;7.20;99.90;;;;;;5011657;28;20060;-75
2023/01/12 04:30:31;;;;;;;8.25;1.60;;;7.20;99.90;;;;;;5010417;28;20030;-75
2023/01/12 04:33:15;;;;;;;5.03;1.08;;;7.20;99.90;;;;;;5029156;28;20502;-75
2023/01/12 04:35:46;;;;;;;8.15;1.30;;;7.20;99.90;;;;;;5009990;28;20033;-74
2023/01/12 04:38:17;;;;;;;6.57;1.63;;;7.30;99.90;;;;;;5011322;28;20081;-75
2023/01/12 04:40:51;;;;;;;8.52;1.60;;;7.20;99.90;;;;;;5009518;28;20076;-75
2023/01/12 04:43:23;;;;;;;9.68;1.20;;;7.30;99.90;;;;;;5009912;28;20030;-75
2023/01/12 04:45:49;;;;;;;12.20;1.80;;;7.30;99.90;;;;;;5009884;28;20032;-75
2023/01/12 04:48:15;;;;;;;13.70;1.92;;;7.30;99.90;;;;;;5012956;28;20383;-74
2023/01/12 04:50:41;;;;;;;11.65;2.47;;;7.30;99.90;;;;;;5012761;28;20040;-74
2023/01/12 04:53:11;;;;;;;10.90;1.48;;;7.30;99.90;;;;;;5012350;28;20498;-75
2023/01/12 04:55:41;;;;;;;5.00;1.30;;;7.30;99.90;;;;;;5010816;28;20029;-74
2023/01/12 04:58:13;;;;;;;7.95;1.20;;;7.30;99.90;;;;;;5009103;28;20082;-74
2023/01/12 05:00:39;;;;;;;6.90;1.35;;;7.30;99.90;;;;;;5009940;28;20030;-74
2023/01/12 05:03:14;;;;;;;12.25;1.80;;;7.30;99.90;;;;;;5010642;28;20049;-74
2023/01/12 05:05:40;;;;;;;9.82;0.93;;;7.40;99.90;;;;;;5005375;28;20082;-75
2023/01/12 05:10:59;;;;;;;3.67;1.10;;;7.40;99.90;;;;;;5011522;28;20721;-75
2023/01/12 05:13:30;;;;;;;6.93;1.42;;;7.40;99.90;;;;;;5012331;28;20056;-75
2023/01/12 05:16:18;;;;;;;9.45;1.23;;;7.40;99.90;;;;;;5012735;28;20430;-76
2023/01/12 05:18:45;;;;;;;5.88;0.80;;;7.40;99.90;;;;;;5009881;28;20559;-76
2023/01/12 05:21:11;;;;;;;9.30;1.27;;;7.40;99.90;;;;;;5009806;28;20058;-75
2023/01/12 05:23:37;;;;;;;8.60;1.00;;;7.40;99.90;;;;;;5011438;28;20022;-75
2023/01/12 05:26:10;;;;;;;13.57;2.05;;;7.40;99.90;;;;;;5010531;28;20034;-75
2023/01/12 05:28:36;;;;;;;7.47;0.85;;;7.40;99.90;;;;;;5012509;28;20426;-74
2023/01/12 05:31:03;;;;;;;5.50;0.90;;;7.50;99.90;;;;;;5008669;28;20502;-75
2023/01/12 05:33:41;;;;;;;9.55;1.40;;;7.50;99.90;;;;;;5008103;28;20064;-76
2023/01/12 05:36:10;;;;;;;8.10;1.30;;;7.50;99.90;;;;;;5011278;28;20368;-74
2023/01/12 05:38:39;;;;;;;7.78;1.83;;;7.50;99.90;;;;;;5002243;28;20018;-73
2023/01/12 05:41:14;;;;;;;6.47;1.10;;;7.50;99.90;;;;;;5009630;28;20026;-73
2023/01/12 05:43:49;;;;;;;9.00;1.33;;;7.60;99.90;;;;;;5010086;28;20034;-73
2023/01/12 05:46:19;;;;;;;13.60;2.20;;;7.50;99.90;;;;;;5008992;28;20072;-73
2023/01/12 05:48:45;;;;;;;11.70;1.38;;;7.50;99.90;;;;;;5008950;28;20558;-73
2023/01/12 05:51:11;;;;;;;7.38;1.50;;;7.50;99.90;;;;;;5013850;28;20097;-73
2023/01/12 05:53:47;;;;;;;8.43;1.95;;;7.50;99.90;;;;;;5013522;28;20080;-73
2023/01/12 05:56:22;;;;;;;6.68;1.08;;;7.50;99.90;;;;;;5005783;28;20454;-74
2023/01/12 05:59:03;;;;;;;7.32;1.55;;;7.60;99.90;;;;;;5010994;28;20479;-74
2023/01/12 06:01:30;;;;;;;8.30;1.10;;;7.50;99.90;;;;;;5004903;28;20102;-74
2023/01/12 06:04:10;;;;;;;4.22;0.90;;;7.60;99.90;;;;;;5006168;28;20053;-73
2023/01/12 06:06:38;;;;;;;8.57;1.48;;;7.60;99.90;;;;;;5011767;28;20120;-73
2023/01/12 06:09:13;;;;;;;5.40;1.42;;;7.60;99.90;;;;;;5009367;28;21096;-74
2023/01/12 06:14:35;;;;;;;7.07;1.23;;;7.60;99.90;;;;;;5012023;28;20036;-75
2023/01/12 06:17:04;;;;;;;5.65;1.00;;;7.60;99.90;;;;;;5009469;28;20030;-73
2023/01/12 06:19:38;;;;;;;9.75;1.25;;;7.70;99.90;;;;;;5008979;28;20038;-74
2023/01/12 06:22:06;;;;;;;8.23;1.13;;;7.70;99.90;;;;;;5004531;28;20133;-74
2023/01/12 06:24:32;;;;;;;10.32;1.85;;;7.70;99.90;;;;;;5010132;28;20036;-74
2023/01/12 06:27:00;;;;;;;5.97;1.30;;;7.70;99.90;;;;;;5007630;28;20030;-75
2023/01/12 06:29:29;;;;;;;12.82;1.55;;;7.70;99.90;;;;;;5013540;28;20030;-75
2023/01/12 06:31:55;;;;;;;8.68;1.23;;;7.70;99.90;;;;;;5008864;28;20029;-75
2023/01/12 06:34:23;;;;;;;4.13;1.08;;;7.70;99.90;;;;;;5011219;28;20030;-75
2023/01/12 06:36:49;;;;;;;7.75;1.40;;;7.70;99.90;;;;;;5014968;28;20034;-76
2023/01/12 06:39:18;;;;;;;4.65;0.90;;;7.70;99.90;;;;;;5010703;28;20037;-73
2023/01/12 06:44:37;;;;;;;4.82;1.02;;;7.70;99.90;;;;;;5005605;28;20586;-75
2023/01/12 06:47:06;;;;;;;6.25;1.38;;;8.20;99.90;;;;;;5011019;28;20022;-74
2023/01/12 06:49:31;;;;;;;9.68;1.10;;;8.60;99.90;;;;;;5010594;28;20076;-75
2023/01/12 06:52:00;;;;;;;5.80;0.90;;;8.60;99.90;;;;;;5006325;28;20510;-75
2023/01/12 06:54:29;;;;;;;6.07;1.20;;;8.50;99.90;;;;;;5010154;28;20033;-75
2023/01/12 06:56:55;;;;;;;6.50;1.08;;;8.40;99.90;;;;;;5013273;28;20114;-75
2023/01/12 06:59:21;;;;;;;8.45;1.10;;;8.30;99.90;;;;;;5012255;28;20470;-73
2023/01/12 07:01:49;;;;;;;4.85;1.00;;;8.20;99.90;;;;;;5012932;28;20116;-76
2023/01/12 07:04:21;;;;;;;3.97;0.90;;;8.10;99.90;;;;;;5012793;28;20471;-75
2023/01/12 07:06:47;;;;;;;5.05;0.98;;;8.00;99.90;;;;;;5013960;28;20026;-75
2023/01/12 07:09:15;;;;;;;4.03;0.88;;;8.00;99.90;;;;;;5012867;28;20052;-76
2023/01/12 07:11:44;;;;;;;3.75;1.30;;;8.00;99.90;;;;;;5010739;28;20018;-74
2023/01/12 07:14:24;;;;;;;6.38;1.08;;;7.90;99.90;;;;;;5014798;28;20112;-75
2023/01/12 07:16:59;;;;;;;4.57;0.80;;;7.90;99.90;;;;;;5009624;28;20017;-75
2023/01/12 07:19:25;;;;;;;7.05;1.10;;;7.90;99.90;;;;;;5013344;28;20098;-75
2023/01/12 07:21:53;;;;;;;3.63;1.13;;;7.90;99.90;;;;;;5017273;28;20491;-76
2023/01/12 07:24:22;;;;;;;2.30;0.70;;;7.90;99.90;;;;;;5015105;28;20030;-75
2023/01/12 07:26:49;;;;;;;4.45;1.00;;;7.90;99.90;;;;;;5012717;28;20443;-74
2023/01/12 07:29:24;;;;;;;6.95;0.73;;;8.00;99.90;;;;;;5012911;28;20487;-75
2023/01/12 07:31:50;;;;;;;5.15;1.02;;;8.00;99.90;;;;;;5012618;28;20026;-74
2023/01/12 07:34:25;;;;;;;3.65;0.98;;;8.00;99.90;;;;;;5015415;28;20383;-75
2023/01/12 07:36:53;;;;;;;3.67;1.15;;;8.00;99.90;;;;;;5011550;28;20041;-76
2023/01/12 07:39:19;;;;;;;10.23;1.27;;;8.00;99.90;;;;;;5018730;28;20152;-74
2023/01/12 07:44:29;;;;;;;;;;;8.10;99.90;;;;;;5017727;28;20505;-74
2023/01/12 07:46:54;;;;;;;4.63;1.15;;;8.10;99.90;;;;;;5018013;28;19909;-72
2023/01/12 07:49:29;;;;;;;3.95;1.17;;;8.10;99.90;;;;;;5021321;28;20089;-74
2023/01/12 07:52:01;;;;;;;4.93;1.00;;;8.10;99.90;;;;;;5014189;28;20026;-74
2023/01/12 07:54:27;;;;;;;3.42;0.80;;;8.20;99.90;;;;;;5013907;28;20107;-73
2023/01/12 07:56:52;;;;;;;8.43;1.27;;;8.20;99.90;;;;;;5014460;28;20441;-75
2023/01/12 07:59:18;;;;;;;11.13;1.27;;;8.20;99.90;;;;;;5011691;28;20433;-74
2023/01/12 08:01:44;;;;;;;3.00;0.80;;;8.30;99.90;;;;;;5017299;28;20046;-75
2023/01/12 08:04:15;;;;;;;5.68;0.90;;;8.30;99.90;;;;;;5011010;28;20056;-75
2023/01/12 08:06:41;;;;;;;4.90;0.85;;;8.30;99.90;;;;;;5011818;28;20026;-73
2023/01/12 08:09:13;;;;;;;4.95;0.70;;;8.30;99.90;;;;;;5005546;28;20034;-75
2023/01/12 08:11:41;;;;;;;4.80;0.90;;;8.30;99.90;;;;;;5014076;28;20030;-75
2023/01/12 08:14:07;;;;;;;3.05;0.80;;;8.40;99.90;;;;;;5009295;28;20109;-75
2023/01/12 08:16:48;;;;;;;4.85;0.80;;;8.40;99.90;;;;;;5010916;28;20037;-75
2023/01/12 08:19:29;;;;;;;3.58;1.00;;;8.40;99.90;;;;;;5005346;28;20483;-75
2023/01/12 08:21:59;;;;;;;6.18;0.80;;;8.50;99.90;;;;;;5013904;28;20041;-76
2023/01/12 08:24:32;;;;;;;2.00;0.70;;;8.50;99.90;;;;;;5010976;28;20030;-76
2023/01/12 08:27:04;;;;;;;9.65;0.90;;;8.50;99.90;;;;;;5019850;28;20018;-73
2023/01/12 08:29:46;;;;;;;6.43;0.63;;;8.50;99.90;;;;;;5016949;28;20268;-76
2023/01/12 08:32:18;;;;;;;3.28;0.80;;;8.50;99.90;;;;;;5004751;28;20045;-75
2023/01/12 08:34:55;;;;;;;3.90;0.60;;;8.60;99.90;;;;;;5010197;28;20061;-75
2023/01/12 08:37:24;;;;;;;3.03;0.80;;;8.60;99.90;;;;;;5014599;28;20033;-74
2023/01/12 08:39:51;;;;;;;1.90;0.50;;;8.60;99.90;;;;;;5011257;28;20375;-75
2023/01/12 08:42:28;;;;;;;3.67;0.85;;;8.60;99.90;;;;;;5019072;28;20036;-74
2023/01/12 08:44:59;;;;;;;4.40;0.98;;;8.70;99.90;;;;;;5005845;28;20040;-75
2023/01/12 08:47:29;;;;;;;3.63;0.80;;;8.70;99.90;;;;;;5011242;28;20527;-74
2023/01/12 08:50:02;;;;;;;3.47;0.95;;;8.70;99.90;;;;;;5015910;28;20025;-75
2023/01/12 08:52:31;;;;;;;3.90;0.80;;;8.70;99.90;;;;;;5015333;28;20461;-75
2023/01/12 08:55:03;;;;;;;7.97;0.95;;;8.70;99.90;;;;;;5015925;28;20033;-75
2023/01/12 08:57:32;;;;;;;4.35;0.75;;;8.70;99.90;;;;;;5018348;28;20391;-74
2023/01/12 09:00:05;;;;;;;8.02;1.63;;;8.70;99.90;;;;;;5009948;28;20474;-74
2023/01/12 09:02:31;;;;;;;6.40;0.83;;;8.70;99.90;;;;;;5015352;28;20057;-74
2023/01/12 09:05:18;;;;;;;2.75;0.85;;;8.80;99.90;;;;;;5013403;28;20029;-74
2023/01/12 09:07:44;;;;;;;9.15;0.85;;;8.80;99.90;;;;;;5015835;28;20034;-74
2023/01/12 09:10:09;;;;;;;9.20;1.30;;;8.80;99.90;;;;;;5012256;28;20045;-74
2023/01/12 09:12:38;;;;;;;6.47;1.15;;;8.80;99.90;;;;;;5019633;28;20368;-74
2023/01/12 09:15:10;;;;;;;4.18;0.60;;;8.80;99.90;;;;;;5014721;28;20065;-72
2023/01/12 09:17:35;;;;;;;2.53;0.63;;;8.80;99.90;;;;;;5010754;28;20107;-74
2023/01/12 09:20:01;;;;;;;5.65;0.70;;;8.80;99.90;;;;;;5013494;28;20515;-73
2023/01/12 09:22:28;;;;;;;3.60;0.70;;;8.80;99.90;;;;;;5016107;28;20376;-73
2023/01/12 09:24:54;;;;;;;4.45;0.93;;;8.80;99.90;;;;;;5014255;28;20084;-75
2023/01/12 09:27:19;;;;;;;6.97;0.82;;;8.80;99.90;;;;;;5018333;28;20430;-74
2023/01/12 09:29:54;;;;;;;4.30;1.30;;;8.90;99.90;;;;;;5016972;28;20052;-74
2023/01/12 09:32:27;;;;;;;6.80;1.35;;;8.90;99.90;;;;;;5013279;28;20037;-73
2023/01/12 09:34:53;;;;;;;6.43;1.07;;;8.90;99.90;;;;;;5015031;28;20479;-74
2023/01/12 09:37:26;;;;;;;6.03;0.77;;;8.90;99.90;;;;;;5016106;28;20030;-74
2023/01/12 09:39:52;;;;;;;7.05;1.00;;;8.90;99.90;;;;;;5012180;28;20084;-75
2023/01/12 09:48:09;;;;;;;5.70;1.77;;;9.00;99.90;;;;;;5011384;28;20025;-74
2023/01/12 09:50:47;;;;;;;4.10;1.13;;;9.00;99.90;;;;;;5017077;28;20026;-74
2023/01/12 09:53:35;;;;;;;10.75;1.30;;;9.00;99.90;;;;;;5011352;28;20033;-74
2023/01/12 09:56:17;;;;;;;4.13;1.00;;;9.00;99.90;;;;;;5013932;28;20390;-75
2023/01/12 09:59:06;;;;;;;3.03;0.88;;;9.00;99.90;;;;;;5015292;28;20034;-74
2023/01/12 10:01:36;;;;;;;5.85;1.45;;;9.00;99.90;;;;;;5010456;28;20045;-72
2023/01/12 10:04:02;;;;;;;3.72;1.17;;;9.00;99.90;;;;;;5009745;28;20089;-73
2023/01/12 10:06:29;;;;;;;6.25;1.33;;;9.00;99.90;;;;;;5014109;28;20021;-74
2023/01/12 10:08:55;;;;;;;5.35;1.17;;;9.00;99.90;;;;;;5013978;28;20080;-74
2023/01/12 10:11:58;;;;;;;5.45;1.23;;;9.00;99.90;;;;;;5014425;28;20036;-75
2023/01/12 10:14:59;;;;;;;3.00;1.02;;;9.00;99.90;;;;;;5014394;28;20044;-74
2023/01/12 10:17:44;;;;;;;11.00;1.20;;;9.10;99.90;;;;;;5012522;28;20561;-75
2023/01/12 10:20:31;;;;;;;5.85;0.85;;;9.10;99.90;;;;;;5013715;28;20486;-73
2023/01/12 10:23:14;;;;;;;3.85;0.80;;;9.10;99.90;;;;;;5010943;28;20045;-74
2023/01/12 10:25:47;;;;;;;5.78;1.02;;;9.10;99.90;;;;;;5014628;28;20509;-76
2023/01/12 10:28:28;;;;;;;3.88;0.70;;;9.10;99.90;;;;;;5003922;28;20073;-75
2023/01/12 10:30:56;;;;;;;5.22;1.20;;;9.10;99.90;;;;;;4974438;28;1115524;-76
2023/01/12 10:33:21;;;;;;;6.90;0.85;;;9.10;99.90;;;;;;5009637;28;20040;-76
2023/01/12 10:35:50;;;;;;;4.35;0.82;;;9.10;99.90;;;;;;5006988;28;20026;-75
2023/01/12 10:38:26;;;;;;;5.05;0.93;;;9.10;99.90;;;;;;5010083;28;20034;-76
2023/01/12 10:41:22;;;;;;;5.72;0.80;;;9.20;99.90;;;;;;5009366;28;20058;-75
2023/01/12 10:43:53;;;;;;;2.83;0.93;;;9.20;99.90;;;;;;4954991;28;20039;-76
2023/01/12 10:46:22;;;;;;;3.45;1.10;;;9.20;99.90;;;;;;5006172;28;20530;-74
2023/01/12 10:48:50;;;;;;;3.08;0.88;;;9.20;99.90;;;;;;5008764;28;20033;-74
2023/01/12 10:51:26;;;;;;;5.30;0.95;;;9.20;99.90;;;;;;5012262;28;20021;-75
2023/01/12 10:54:30;;;;;;;3.03;0.77;;;9.30;99.90;;;;;;5021563;28;20018;-74
2023/01/12 10:57:02;;;;;;;3.90;0.73;;;9.30;99.90;;;;;;4991285;28;20093;-75
2023/01/12 10:59:31;;;;;;;4.18;1.90;;;9.40;99.90;;;;;;5006285;28;20549;-73
2023/01/12 11:02:10;;;;;;;5.32;0.85;;;9.40;99.90;;;;;;5010984;28;20037;-75
2023/01/12 11:04:51;;;;;;;1.83;0.70;;;9.50;99.90;;;;;;5014368;28;20030;-75
2023/01/12 11:07:30;;;;;;;4.50;0.68;;;9.50;99.90;;;;;;5009484;28;20486;-75
2023/01/12 11:10:16;;;;;;;3.53;0.50;;;9.50;99.90;;;;;;5002009;28;20018;-74
2023/01/12 11:12:42;;;;;;;3.10;0.77;;;9.50;99.90;;;;;;5011962;28;20030;-75
2023/01/12 11:15:11;;;;;;;3.40;1.50;;;9.60;99.90;;;;;;5011393;28;20025;-75
2023/01/12 11:17:50;;;;;;;2.90;1.00;;;9.60;99.90;;;;;;5017428;28;20109;-74
2023/01/12 11:20:33;;;;;;;3.30;0.85;;;9.60;99.90;;;;;;5006901;28;20017;-74
2023/01/12 11:23:09;;;;;;;2.38;0.57;;;9.60;99.90;;;;;;5013392;28;20018;-73
2023/01/12 11:25:43;;;;;;;3.75;0.65;;;9.70;99.90;;;;;;5007536;28;20032;-73
2023/01/12 11:28:26;;;;;;;1.85;0.50;;;9.70;99.90;;;;;;5011592;28;20109;-73
2023/01/12 11:31:12;;;;;;;1.88;0.73;;;9.70;99.90;;;;;;5004587;28;20487;-77
2023/01/12 11:33:42;;;;;;;2.08;0.50;;;9.70;99.90;;;;;;5010507;28;20108;-75
2023/01/12 11:36:19;;;;;;;2.67;0.60;;;9.70;99.90;;;;;;5009639;28;20103;-75
2023/01/12 11:39:03;;;;;;;3.17;0.50;;;9.80;99.90;;;;;;5011362;28;20061;-76
2023/01/12 11:44:50;;;;;;;3.20;1.55;;;9.80;99.90;;;;;;5011719;28;20387;-76
2023/01/12 11:47:22;;;;;;;3.75;1.02;;;9.90;99.90;;;;;;5005477;28;20080;-74
2023/01/12 11:49:55;;;;;;;13.18;6.95;;;9.90;99.90;;;;;;5013687;28;20029;-75
2023/01/12 11:52:22;;;;;;;2.65;1.02;;;9.90;99.90;;;;;;5010399;28;20092;-76
2023/01/12 11:54:48;;;;;;;2.47;1.10;;;9.90;99.90;;;;;;5015701;28;20453;-73
2023/01/12 11:57:55;;;;;;;2.92;0.90;;;9.90;99.90;;;;;;5011488;28;20030;-74
2023/01/12 12:00:27;;;;;;;2.85;1.05;;;9.90;99.90;;;;;;5010880;28;20125;-74
2023/01/12 12:02:58;;;;;;;3.80;1.25;;;10.00;99.90;;;;;;5010925;28;20018;-73
2023/01/12 12:05:32;;;;;;;3.60;0.70;;;10.00;99.90;;;;;;5012202;28;20033;-75
2023/01/12 12:08:17;;;;;;;5.28;1.05;;;10.00;99.90;;;;;;5003087;28;20422;-74
2023/01/12 12:10:49;;;;;;;1.60;0.65;;;10.00;99.90;;;;;;5005982;28;20026;-74
2023/01/12 12:13:15;;;;;;;2.95;0.95;;;10.00;99.90;;;;;;5013908;28;20025;-74
2023/01/12 12:15:59;;;;;;;1.38;0.55;;;10.00;99.90;;;;;;5010486;28;20034;-74
2023/01/12 12:18:25;;;;;;;3.40;0.80;;;10.00;99.90;;;;;;5009827;28;20105;-75
2023/01/12 12:21:18;;;;;;;3.83;0.70;;;10.00;99.90;;;;;;5011911;28;20157;-77
2023/01/12 12:24:00;;;;;;;3.03;0.60;;;10.00;99.90;;;;;;5009375;28;20105;-76
2023/01/12 12:26:34;;;;;;;4.90;1.10;;;10.00;99.90;;;;;;5012255;28;20054;-76
2023/01/12 12:29:33;;;;;;;4.40;1.20;;;10.00;99.90;;;;;;5021513;28;20026;-77
2023/01/12 12:32:20;;;;;;;4.03;1.90;;;10.00;99.90;;;;;;5033727;28;20036;-77
2023/01/12 12:35:07;;;;;;;3.10;1.30;;;10.00;99.90;;;;;;5017669;28;20041;-77
2023/01/12 12:37:41;;;;;;;4.10;0.68;;;10.00;99.90;;;;;;5007080;28;20176;-77
2023/01/12 12:40:19;;;;;;;3.05;0.80;;;10.00;99.90;;;;;;5021340;28;20509;-77
2023/01/12 12:46:10;;;;;;;3.30;1.27;;;10.00;99.90;;;;;;5003638;28;20193;-77
2023/01/12 12:49:00;;;;;;;4.00;1.00;;;10.00;99.90;;;;;;5013643;28;20132;-77
2023/01/12 12:51:29;;;;;;;1.83;0.60;;;10.00;99.90;;;;;;5019121;28;20027;-77
2023/01/12 12:53:56;;;;;;;2.95;0.85;;;10.00;99.90;;;;;;5017335;28;20034;-76
2023/01/12 12:56:24;;;;;;;2.78;1.33;;;10.00;99.90;;;;;;5011088;28;20030;-76
2023/01/12 12:58:51;;;;;;;2.13;1.00;;;10.00;99.90;;;;;;5014353;28;20387;-77
2023/01/12 13:01:20;;;;;;;3.55;1.40;;;10.00;99.90;;;;;;5008942;28;20908;-76
2023/01/12 13:03:58;;;;;;;2.17;0.82;;;10.00;99.90;;;;;;5011081;28;20510;-77
2023/01/12 13:06:43;;;;;;;5.30;1.17;;;10.10;99.90;;;;;;5016339;28;20018;-76
2023/01/12 13:09:15;;;;;;;5.22;0.75;;;10.10;99.90;;;;;;5016231;28;20026;-76
2023/01/12 13:11:52;;;;;;;6.70;2.38;;;10.10;99.90;;;;;;5016838;28;20022;-77
2023/01/12 13:14:38;;;;;;;1.25;0.70;;;10.20;99.90;;;;;;5017142;28;20022;-78
2023/01/12 13:17:24;;;;;;;2.17;0.50;;;10.20;99.90;;;;;;5016183;28;20128;-77
2023/01/12 13:19:59;;;;;;;2.88;0.85;;;10.20;99.90;;;;;;5005455;28;20430;-76
2023/01/12 13:22:34;;;;;;;1.00;0.50;;;10.20;99.90;;;;;;5018112;28;20045;-76
2023/01/12 13:25:28;;;;;;;5.50;1.02;;;10.20;99.90;;;;;;5016766;28;20033;-76
2023/01/12 13:28:00;;;;;;;1.50;0.55;;;10.20;99.90;;;;;;5016262;28;20083;-76
2023/01/12 13:30:25;;;;;;;2.05;0.43;;;10.20;99.90;;;;;;5013389;28;20062;-75
2023/01/12 13:33:13;;;;;;;3.53;1.10;;;10.20;99.90;;;;;;5012355;28;20049;-76
2023/01/12 13:35:39;;;;;;;2.25;0.80;;;10.20;99.90;;;;;;5018063;28;20021;-76
2023/01/12 13:38:36;;;;;;;0.98;0.55;;;10.20;99.90;;;;;;5011208;28;20475;-76
2023/01/12 13:43:13;;;;;;;3.05;0.63;;;10.20;99.90;;;;;;5011109;28;20026;-75
2023/01/12 13:44:05;;;;;;;2.05;0.70;;;10.20;99.90;;;;;;5020187;28;20038;-74
2023/01/12 13:46:40;;;;;;;3.17;1.30;;;10.10;99.90;;;;;;5009650;28;20034;-75
2023/01/12 13:49:32;;;;;;;2.53;0.60;;;10.10;99.90;;;;;;5015233;28;20036;-76
2023/01/12 13:52:08;;;;;;;1.48;0.93;;;10.20;99.90;;;;;;5021789;28;20105;-77
2023/01/12 13:54:34;;;;;;;3.20;1.33;;;10.10;99.90;;;;;;5014228;28;20093;-76
2023/01/12 13:57:16;;;;;;;1.67;0.70;;;10.10;99.90;;;;;;5013961;28;20501;-77
2023/01/12 14:00:22;;;;;;;2.85;1.13;;;10.10;99.90;;;;;;5015394;28;20046;-77
2023/01/12 14:02:49;;;;;;;6.85;1.33;;;10.10;99.90;;;;;;4950967;29;20039;-75